Relevés horaires Koksijde (Belgique)


Relevés horaires à Koksijde - Lundi 24 Févr. 2014
Heure UTC1 Température [°C] Vent [km/h] Hum. [%] Pres.4 [hPa] Visi. [Km] Nébu. [octa] Préc.5 [mm] Cond.
2m. Res. Ros. Dir.2 Vit. Moy. Raf.3
23:00 8.6 7.1 5.2 S 9.3 11.1 14.8 79 1007.7(-1.3/3h) 30 1/8 -- --
22:00 8.3 6.7 5.3 SSE 9.3 11.1 13.0 81 1008.2(-0.8/3h) 30 1/8 -- --
21:00 9.0 7.6 5.5 S 9.3 11.1 16.7 79 1008.7(-0.6/3h) 30 1/8 -- --
20:00 9.3 7.9 5.5 S 9.3 9.3 14.8 77 1009(0.0/3h) 30 3/8 -- --
19:00 9.6 8.3 5.9 SSE 9.3 11.1 16.7 78 1009.2(0.1/3h) 30 3/8 -- --
18:00 9.5 8.6 6.3 S 7.4 14.8 18.5 80 1009.5(0.6/3h) 30 4/8 0/0h
--
17:00 11.3 11.1 6.8 S 5.6 11.1 13.0 74 1009.2(0.6/3h) 30 4/8 -- --
16:00 12.3 11.2 6.4 SSO 11.1 14.8 18.5 67 1009(0.1/3h) 30 5/8 -- --
15:00 12.3 10.8 6.2 S 14.8 14.8 18.5 66 1008.7(-0.8/3h) 30 5/8 -- --
14:00 12.1 10.7 6.0 S 13.0 14.8 18.5 66 1008.5(-0.8/3h) 30 7/8 -- --
13:00 11.3 9.8 5.6 S 13.0 13.0 18.5 68 1008.9(-0.6/3h) 30 7/8 -- --
12:00 10.6 9.5 5.4 SSO 9.3 14.8 20.4 70 1009.5(0.0/3h) 30 7/8 0/0h
--
11:00 10.0 7.9 4.8 S 14.8 14.8 18.5 70 1009.5(-0.2/3h) 30 7/8 -- --
10:00 8.1 5.9 4.1 S 13.0 13.0 18.5 76 1009.5(0.0/3h) 30 7/8 -- --
09:00 6.8 5 3.6 S 9.3 9.3 14.8 80 1009.7(0.0/3h) 30 7/8 -- --
08:00 5.5 3.9 3.1 S 7.4 7.4 13.0 84 1009.7(-0.3/3h) 30 7/8 -- --
07:00 5.3 3.6 3.1 S 7.4 9.3 14.8 86 1009.5(-1.0/3h) 30 3/8 -- --
06:00 5.5 3.4 3.2 SSE 9.3 13.0 16.7 85 1009.7(-1.8/3h) 30 3/8 0/0h
--
05:00 5.5 3 3.4 SSE 11.1 13.0 16.7 86 1010.2(-2.2/3h) 30 1/8 -- --
04:00 6.0 3.6 3.6 SSE 11.1 13.0 16.7 85 1010.7(-2.2/3h) 35 3/8 -- --
03:00 6.3 4 3.8 S 11.1 11.1 16.7 84 1011.7(-2.0/3h) 35 4/8 -- --
02:00 6.6 4.4 4.1 SSE 11.1 11.1 16.7 84 1012.4(-1.7/3h) 35 2/8 -- --
01:00 7.4 5.3 4.4 SSE 11.1 11.1 14.8 81 1013(-1.8/3h) 30 7/8 -- --
00:00 7.3 6.5 4.4 SSE 5.6 13.0 16.7 82 1013.7(-1.2/3h) 25 7/8 0/0h
--

1 Coordinated Universal Time. Actuellement il est 16:00 locale et 14:00 UTC.

2 Le vent souffle depuis la direction indiquée vers la direction oposée.

3 Les rafales max. sont disponible 40 min après l'heure du relevé.

4 Pour les stations d'altitude (plus de 600m) le géopotentiel du niveau le plus proche de la pression obligatoire est indiqué.

5 Les stations disposant d'un diffuseur peuvent indiquer "trace". Cela signifie que des précipitations ont touchés le sol mais que la quantité est inférieure à 0.1 mm.

Récapitulatif de la journée
Température [°C] Vent [km/h] Ensoleillement4 [h] Precipitations totale5 [mm] Pression [Hpa]
Min1 Max.2 Moy.3 Max. Min Max.
5.3 12.8 12.1 20.4 0 h 0 min 0 1007.7 1013.7

1 Température minimale relevée entre 18:00 UTC la veille et 18:00 UTC le jour donné.

2 Température maximale relevée entre 06:00 UTC le jour donné et 06:00 UTC le lendemain.

3 Vent moyen de la journée basé sur les relevés horaires.

4 Ensoleillement en heures relevé entre 06:00 UTC la veille et 06:00 UTC le jour donné.

5 Précipitations totales tombées entre 06:00 UTC la jour donné et 06:00 UTC le lendemain.

Graphiques horaires